Observation data for Brownfield on 09/23/2019      Previous  Date       Current Mesonet Observations  Soil Data  Daily Summary Page  Observations in Plain Language
KBWS 230500Z 09004KT 21/17 A3011 RMK A01 T02080166  RH  081%=      5-min Rain = 0
KBWS 230505Z 08004KT 21/17 A3011 RMK A01 T02070166  RH  081%=      5-min Rain = 0
KBWS 230510Z 07004KT 21/17 A3011 RMK A01 T02070167  RH  082%=      5-min Rain = 0
KBWS 230515Z 07005KT 21/17 A301 RMK A01 T02070170  RH  084%=      5-min Rain = 0
KBWS 230520Z 07005KT 21/17 A301 RMK A01 T02070170  RH  083%=      5-min Rain = 0
KBWS 230525Z 08006KT 21/17 A301 RMK A01 T02080167  RH  081%=      5-min Rain = 0
KBWS 230530Z 11006KT 21/17 A301 RMK A01 T02070165  RH  081%=      5-min Rain = 0
KBWS 230535Z 10005KT 21/17 A301 RMK A01 T02050166  RH  082%=      5-min Rain = 0
KBWS 230540Z 11005KT 20/17 A3011 RMK A01 T02030168  RH  084%=      5-min Rain = 0
KBWS 230545Z 11005KT 20/17 A301 RMK A01 T02010169  RH  086%=      5-min Rain = 0
KBWS 230550Z 11006KT 20/17 A301 RMK A01 T02010168  RH  085%=      5-min Rain = 0
KBWS 230555Z 10005KT 20/17 A301 RMK A01 T02020168  RH  085%=      5-min Rain = 0
KBWS 230600Z 11004KT 20/17 A301 RMK A01 T02020168  RH  085%=      5-min Rain = 0
KBWS 230605Z 10004KT 20/17 A301 RMK A01 T02010169  RH  086%=      5-min Rain = 0
KBWS 230610Z 09004KT 20/17 A301 RMK A01 T02000169  RH  086%=      5-min Rain = 0
KBWS 230615Z 09005KT 20/17 A301 RMK A01 T02000169  RH  086%=      5-min Rain = 0
KBWS 230620Z 10005KT 20/17 A301 RMK A01 T02000170  RH  087%=      5-min Rain = 0
KBWS 230625Z 10005KT 20/17 A301 RMK A01 T02000171  RH  088%=      5-min Rain = 0
KBWS 230630Z 11005KT 20/17 A301 RMK A01 T01990171  RH  088%=      5-min Rain = 0
KBWS 230635Z 11005KT 20/17 A3009 RMK A01 T01980172  RH  089%=      5-min Rain = 0
KBWS 230640Z 11005KT 20/17 A3009 RMK A01 T01980173  RH  090%=      5-min Rain = 0
KBWS 230645Z 12004KT 20/17 A3009 RMK A01 T01970173  RH  090%=      5-min Rain = 0
KBWS 230650Z 11003KT 20/17 A3009 RMK A01 T01970174  RH  091%=      5-min Rain = 0
KBWS 230655Z 11003KT 20/17 A3009 RMK A01 T01970174  RH  091%=      5-min Rain = 0
KBWS 230700Z 11002KT 20/17 A3009 RMK A01 T01970174  RH  091%=      5-min Rain = 0
KBWS 230705Z 11003KT 20/17 A301 RMK A01 T01970174  RH  091%=      5-min Rain = 0
KBWS 230710Z 12004KT 20/17 A301 RMK A01 T01960174  RH  092%=      5-min Rain = 0
KBWS 230715Z 12004KT 20/17 A301 RMK A01 T01950174  RH  092%=      5-min Rain = 0
KBWS 230720Z 12004KT 19/18 A301 RMK A01 T01940175  RH  093%=      5-min Rain = 0
KBWS 230725Z 13004KT 19/18 A3009 RMK A01 T01940175  RH  093%=      5-min Rain = 0
KBWS 230730Z 13003KT 19/18 A301 RMK A01 T01940175  RH  093%=      5-min Rain = 0
KBWS 230735Z 12004KT 19/18 A301 RMK A01 T01940175  RH  094%=      5-min Rain = 0
KBWS 230740Z 12004KT 19/18 A301 RMK A01 T01940175  RH  094%=      5-min Rain = 0
KBWS 230745Z 12003KT 19/18 A301 RMK A01 T01930175  RH  094%=      5-min Rain = 0
KBWS 230750Z 11002KT 19/18 A301 RMK A01 T01930176  RH  095%=      5-min Rain = 0
KBWS 230755Z 11003KT 19/18 A301 RMK A01 T01940177  RH  095%=      5-min Rain = 0
KBWS 230800Z 10003KT 19/18 A301 RMK A01 T01930176  RH  095%=      5-min Rain = 0
KBWS 230805Z 12003KT 19/18 A301 RMK A01 T01920176  RH  095%=      5-min Rain = 0
KBWS 230810Z 13003KT 19/18 A301 RMK A01 T01920176  RH  095%=      5-min Rain = 0
KBWS 230815Z 13003KT 19/18 A301 RMK A01 T01930177  RH  095%=      5-min Rain = 0
KBWS 230820Z 13004KT 19/18 A301 RMK A01 T01930177  RH  095%=      5-min Rain = 0
KBWS 230825Z 14004KT 19/18 A301 RMK A01 T01920177  RH  095%=      5-min Rain = 0
KBWS 230830Z 14005KT 19/18 A301 RMK A01 T01920176  RH  096%=      5-min Rain = 0
KBWS 230835Z 15005KT 19/18 A3009 RMK A01 T01920177  RH  096%=      5-min Rain = 0
KBWS 230840Z 16005KT 19/18 A3009 RMK A01 T01930179  RH  096%=      5-min Rain = 0
KBWS 230845Z 15005KT 19/18 A3009 RMK A01 T01940180  RH  096%=      5-min Rain = 0
KBWS 230850Z 16006KT 19/18 A3009 RMK A01 T01940180  RH  096%=      5-min Rain = 0
KBWS 230855Z 16006KT 20/18 A3009 RMK A01 T01950181  RH  097%=      5-min Rain = 0
KBWS 230900Z 16006KT 20/18 A3009 RMK A01 T01950182  RH  097%=      5-min Rain = 0
KBWS 230905Z 16006KT 20/18 A301 RMK A01 T01950182  RH  097%=      5-min Rain = 0
KBWS 230910Z 18006KT 20/18 A3009 RMK A01 T01950182  RH  097%=      5-min Rain = 0
KBWS 230915Z 18005KT 20/18 A3009 RMK A01 T01950182  RH  097%=      5-min Rain = 0
KBWS 230920Z 18005KT 20/18 A3009 RMK A01 T01960183  RH  097%=      5-min Rain = 0
KBWS 230925Z 19005KT 20/18 A3009 RMK A01 T01960183  RH  097%=      5-min Rain = 0
KBWS 230930Z 19005KT 20/18 A3009 RMK A01 T01970184  RH  097%=      5-min Rain = 0
KBWS 230935Z 19005KT 20/19 A3009 RMK A01 T01980185  RH  097%=      5-min Rain = 0
KBWS 230940Z 20005KT 20/18 A3009 RMK A01 T01970184  RH  097%=      5-min Rain = 0
KBWS 230945Z 20005KT 20/18 A3009 RMK A01 T01960183  RH  097%=      5-min Rain = 0
KBWS 230950Z 21005KT 20/18 A3009 RMK A01 T01960183  RH  097%=      5-min Rain = 0
KBWS 230955Z 20006KT 20/18 A3009 RMK A01 T01960183  RH  097%=      5-min Rain = 0
KBWS 231000Z 21005KT 20/18 A3009 RMK A01 T01960183  RH  097%=      5-min Rain = 0
KBWS 231005Z 21005KT 20/18 A3009 RMK A01 T01960183  RH  097%=      5-min Rain = 0
KBWS 231010Z 22006KT 20/18 A3009 RMK A01 T01960183  RH  097%=      5-min Rain = 0
KBWS 231015Z 22006KT 20/18 A3009 RMK A01 T01960182  RH  097%=      5-min Rain = 0
KBWS 231020Z 22006KT 20/18 A3009 RMK A01 T01950182  RH  097%=      5-min Rain = 0
KBWS 231025Z 23006KT 20/18 A3009 RMK A01 T01960183  RH  097%=      5-min Rain = 0
KBWS 231030Z 23006KT 20/18 A3009 RMK A01 T01970183  RH  097%=      5-min Rain = 0
KBWS 231035Z 23006KT 20/18 A3009 RMK A01 T01970183  RH  096%=      5-min Rain = 0
KBWS 231040Z 23006KT 20/18 A3009 RMK A01 T01960182  RH  096%=      5-min Rain = 0
KBWS 231045Z 23005KT 20/18 A3009 RMK A01 T01960181  RH  096%=      5-min Rain = 0
KBWS 231050Z 20005KT 20/18 A3009 RMK A01 T01950180  RH  096%=      5-min Rain = 0
KBWS 231055Z 21006KT 19/18 A3009 RMK A01 T01930179  RH  096%=      5-min Rain = 0
KBWS 231100Z 21005KT 19/18 A3009 RMK A01 T01930180  RH  097%=      5-min Rain = 0
KBWS 231105Z 21005KT 19/18 A301 RMK A01 T01920179  RH  097%=      5-min Rain = 0
KBWS 231110Z 22005KT 19/18 A301 RMK A01 T01920180  RH  097%=      5-min Rain = 0
KBWS 231115Z 22004KT 19/18 A301 RMK A01 T01920179  RH  097%=      5-min Rain = 0
KBWS 231120Z 23004KT 19/18 A301 RMK A01 T01920179  RH  097%=      5-min Rain = 0
KBWS 231125Z 23004KT 19/18 A301 RMK A01 T01920179  RH  097%=      5-min Rain = 0
KBWS 231130Z 23004KT 19/18 A301 RMK A01 T01920180  RH  097%=      5-min Rain = 0
KBWS 231135Z 23004KT 19/18 A301 RMK A01 T01920179  RH  097%=      5-min Rain = 0
KBWS 231140Z 24004KT 19/18 A301 RMK A01 T01920179  RH  097%=      5-min Rain = 0
KBWS 231145Z 25004KT 19/18 A301 RMK A01 T01910178  RH  097%=      5-min Rain = 0
KBWS 231150Z 27004KT 19/18 A301 RMK A01 T01900178  RH  097%=      5-min Rain = 0
KBWS 231155Z 26004KT 19/18 A301 RMK A01 T01900177  RH  097%=      5-min Rain = 0
KBWS 231200Z 25005KT 19/18 A3011 RMK A01 T01900178  RH  098%=      5-min Rain = 0
KBWS 231205Z 25004KT 19/18 A3011 RMK A01 T01910178  RH  098%=      5-min Rain = 0
KBWS 231210Z 26002KT 19/18 A3011 RMK A01 T01900178  RH  098%=      5-min Rain = 0
KBWS 231215Z 22001KT 19/18 A3011 RMK A01 T01900177  RH  098%=      5-min Rain = 0
KBWS 231220Z 11004KT 19/18 A3011 RMK A01 T01890177  RH  098%=      5-min Rain = 0
KBWS 231225Z 13004KT 19/18 A3012 RMK A01 T01880176  RH  098%=      5-min Rain = 0
KBWS 231230Z 13004KT 19/18 A3012 RMK A01 T01880176  RH  098%=      5-min Rain = 0
KBWS 231235Z 13005KT 19/18 A3012 RMK A01 T01870176  RH  098%=      5-min Rain = 0
KBWS 231240Z 12004KT 19/18 A3012 RMK A01 T01870176  RH  098%=      5-min Rain = 0
KBWS 231245Z 12004KT 19/18 A3012 RMK A01 T01870176  RH  098%=      5-min Rain = 0
KBWS 231250Z 11004KT 19/18 A3012 RMK A01 T01870176  RH  098%=      5-min Rain = 0
KBWS 231255Z 09003KT 19/18 A3012 RMK A01 T01870176  RH  098%=      5-min Rain = 0
KBWS 231300Z 07003KT 19/18 A3012 RMK A01 T01870177  RH  099%=      5-min Rain = 0
KBWS 231305Z 07003KT 19/18 A3013 RMK A01 T01870177  RH  099%=      5-min Rain = 0
KBWS 231310Z 07003KT 19/18 A3013 RMK A01 T01890179  RH  099%=      5-min Rain = 0
KBWS 231315Z 10004KT 19/18 A3013 RMK A01 T01890178  RH  099%=      5-min Rain = 0
KBWS 231320Z 11004KT 19/18 A3013 RMK A01 T01880178  RH  099%=      5-min Rain = 0
KBWS 231325Z 10004KT 19/18 A3013 RMK A01 T01890179  RH  099%=      5-min Rain = 0
KBWS 231330Z 10004KT 19/18 A3013 RMK A01 T01890179  RH  099%=      5-min Rain = 0
KBWS 231335Z 10006KT 19/18 A3014 RMK A01 T01900180  RH  099%=      5-min Rain = 0
KBWS 231340Z 10006KT 19/18 A3014 RMK A01 T01920182  RH  099%=      5-min Rain = 0
KBWS 231345Z 10006KT 19/18 A3014 RMK A01 T01930183  RH  099%=      5-min Rain = 0
KBWS 231350Z 10005KT 19/18 A3014 RMK A01 T01940184  RH  099%=      5-min Rain = 0
KBWS 231355Z 10006KT 20/19 A3014 RMK A01 T01950185  RH  099%=      5-min Rain = 0
KBWS 231400Z 10004KT 20/19 A3014 RMK A01 T01960185  RH  099%=      5-min Rain = 0
KBWS 231405Z 11004KT 20/19 A3014 RMK A01 T01980187  RH  099%=      5-min Rain = 0
KBWS 231410Z 11004KT 20/19 A3014 RMK A01 T02000189  RH  098%=      5-min Rain = 0
KBWS 231415Z 11004KT 21/19 A3014 RMK A01 T02050192  RH  098%=      5-min Rain = 0
KBWS 231420Z 12006KT 21/19 A3014 RMK A01 T02070192  RH  096%=      5-min Rain = 0
KBWS 231425Z 12006KT 21/19 A3014 RMK A01 T02110192  RH  094%=      5-min Rain = 0
KBWS 231430Z 12006KT 21/19 A3014 RMK A01 T02120191  RH  093%=      5-min Rain = 0
KBWS 231435Z 13006KT 22/19 A3014 RMK A01 T02150191  RH  091%=      5-min Rain = 0
KBWS 231440Z 13006KT 22/19 A3014 RMK A01 T02180192  RH  090%=      5-min Rain = 0
KBWS 231445Z 12006KT 22/19 A3014 RMK A01 T02190192  RH  089%=      5-min Rain = 0
KBWS 231450Z 11006KT 22/19 A3014 RMK A01 T02210192  RH  088%=      5-min Rain = 0
KBWS 231455Z 11005KT 22/19 A3014 RMK A01 T02230192  RH  087%=      5-min Rain = 0
KBWS 231500Z 11006KT 23/19 A3014 RMK A01 T02250191  RH  086%=      5-min Rain = 0
KBWS 231505Z 11005KT 23/19 A3014 RMK A01 T02270191  RH  085%=      5-min Rain = 0
KBWS 231510Z 12005KT 23/19 A3015 RMK A01 T02250190  RH  086%=      5-min Rain = 0
KBWS 231515Z 12005KT 22/19 A3015 RMK A01 T02210189  RH  087%=      5-min Rain = 0
KBWS 231520Z 12005KT 22/19 A3015 RMK A01 T02210192  RH  089%=      5-min Rain = 0
KBWS 231525Z 12005KT 22/19 A3015 RMK A01 T02230193  RH  088%=      5-min Rain = 0
KBWS 231530Z 12004KT 22/19 A3015 RMK A01 T02240192  RH  087%=      5-min Rain = 0
KBWS 231535Z 14004KT 23/19 A3015 RMK A01 T02260191  RH  086%=      5-min Rain = 0
KBWS 231540Z 13005KT 23/19 A3015 RMK A01 T02290191  RH  084%=      5-min Rain = 0
KBWS 231545Z 14006KT 23/19 A3015 RMK A01 T02320194  RH  083%=      5-min Rain = 0
KBWS 231550Z 14006KT 24/20 A3015 RMK A01 T02390195  RH  081%=      5-min Rain = 0
KBWS 231555Z 15007KT 24/20 A3015 RMK A01 T02440196  RH  079%=      5-min Rain = 0
KBWS 231600Z 15009KT 24/20 A3015 RMK A01 T02420195  RH  079%=      5-min Rain = 0
KBWS 231605Z 16008KT 24/20 A3015 RMK A01 T02360195  RH  082%=      5-min Rain = 0
KBWS 231610Z 15007KT 23/20 A3015 RMK A01 T02320195  RH  084%=      5-min Rain = 0
KBWS 231615Z 16008KT 23/20 A3015 RMK A01 T02330195  RH  084%=      5-min Rain = 0
KBWS 231620Z 16009KT 24/20 A3015 RMK A01 T02360197  RH  083%=      5-min Rain = 0
KBWS 231625Z 15008KT 24/20 A3015 RMK A01 T02430200  RH  081%=      5-min Rain = 0
KBWS 231630Z 16009KT 25/20 A3015 RMK A01 T02450198  RH  079%=      5-min Rain = 0
KBWS 231635Z 16009KT 25/20 A3015 RMK A01 T02470198  RH  079%=      5-min Rain = 0
KBWS 231640Z 16009KT 25/20 A3015 RMK A01 T02480198  RH  078%=      5-min Rain = 0
KBWS 231645Z 15009KT 25/20 A3015 RMK A01 T02490197  RH  077%=      5-min Rain = 0
KBWS 231650Z 16009KT 25/20 A3015 RMK A01 T02490195  RH  076%=      5-min Rain = 0
KBWS 231655Z 16008KT 25/19 A3014 RMK A01 T02450194  RH  077%=      5-min Rain = 0
KBWS 231700Z 16008KT 25/20 A3014 RMK A01 T02460195  RH  078%=      5-min Rain = 0
KBWS 231705Z 17008KT 25/19 A3014 RMK A01 T02470194  RH  077%=      5-min Rain = 0
KBWS 231710Z 17008KT 25/19 A3014 RMK A01 T02480191  RH  075%=      5-min Rain = 0
KBWS 231715Z 18008KT 25/19 A3014 RMK A01 T02480189  RH  074%=      5-min Rain = 0
KBWS 231720Z 19007KT 25/19 A3014 RMK A01 T02470190  RH  075%=      5-min Rain = 0
KBWS 231725Z 18007KT 25/19 A3014 RMK A01 T02500191  RH  074%=      5-min Rain = 0
KBWS 231730Z 18006KT 26/19 A3013 RMK A01 T02560191  RH  071%=      5-min Rain = 0
KBWS 231735Z 18008KT 26/19 A3013 RMK A01 T02620189  RH  068%=      5-min Rain = 0
KBWS 231740Z 18007KT 27/19 A3013 RMK A01 T02650192  RH  068%=      5-min Rain = 0
KBWS 231745Z 18007KT 27/19 A3013 RMK A01 T02670193  RH  068%=      5-min Rain = 0
KBWS 231750Z 16007KT 26/19 A3012 RMK A01 T02640192  RH  068%=      5-min Rain = 0
KBWS 231755Z 15008KT 27/20 A3012 RMK A01 T02670195  RH  068%=      5-min Rain = 0
KBWS 231800Z 15006KT 27/19 A3012 RMK A01 T02680190  RH  066%=      5-min Rain = 0
KBWS 231805Z 17009KT 27/19 A3012 RMK A01 T02720191  RH  065%=      5-min Rain = 0
KBWS 231810Z 17007KT 27/19 A3012 RMK A01 T02730188  RH  063%=      5-min Rain = 0
KBWS 231815Z 17006KT 27/19 A3012 RMK A01 T02720189  RH  064%=      5-min Rain = 0
KBWS 231820Z 16007KT 28/19 A3012 RMK A01 T02760190  RH  063%=      5-min Rain = 0
KBWS 231825Z 14007KT 28/19 A3012 RMK A01 T02750186  RH  062%=      5-min Rain = 0
KBWS 231830Z 16007G12KT 27/19 A3011 RMK A01 T02740188  RH  063%=      5-min Rain = 0
KBWS 231835Z 17008G13KT 27/19 A3011 RMK A01 T02730191  RH  064%=      5-min Rain = 0
KBWS 231840Z 17007KT 27/19 A3011 RMK A01 T02730193  RH  065%=      5-min Rain = 0
KBWS 231845Z 16008KT 28/20 A3011 RMK A01 T02770197  RH  065%=      5-min Rain = 0
KBWS 231850Z 15008KT 28/19 A3011 RMK A01 T02770191  RH  063%=      5-min Rain = 0
KBWS 231855Z 14007KT 27/19 A301 RMK A01 T02740189  RH  063%=      5-min Rain = 0
KBWS 231900Z 14008KT 27/19 A301 RMK A01 T02720192  RH  065%=      5-min Rain = 0
KBWS 231905Z 16008KT 27/19 A301 RMK A01 T02740188  RH  063%=      5-min Rain = 0
KBWS 231910Z 17009KT 27/19 A301 RMK A01 T02730187  RH  063%=      5-min Rain = 0
KBWS 231915Z 17005KT 27/19 A301 RMK A01 T02740187  RH  062%=      5-min Rain = 0
KBWS 231920Z 16007KT 28/19 A3009 RMK A01 T02750186  RH  062%=      5-min Rain = 0
KBWS 231925Z 16006G11KT 28/19 A3009 RMK A01 T02760187  RH  062%=      5-min Rain = 0
KBWS 231930Z 15007KT 28/19 A3009 RMK A01 T02770187  RH  061%=      5-min Rain = 0
KBWS 231935Z 15005KT 28/19 A3008 RMK A01 T02760186  RH  062%=      5-min Rain = 0
KBWS 231940Z 16008KT 28/19 A3008 RMK A01 T02780192  RH  063%=      5-min Rain = 0
KBWS 231945Z 17008KT 28/19 A3008 RMK A01 T02800189  RH  061%=      5-min Rain = 0
KBWS 231950Z 18006KT 28/19 A3008 RMK A01 T02790188  RH  061%=      5-min Rain = 0
KBWS 231955Z 17007KT 28/19 A3008 RMK A01 T02770190  RH  062%=      5-min Rain = 0
KBWS 232000Z 17007KT 28/19 A3007 RMK A01 T02760189  RH  063%=      5-min Rain = 0
KBWS 232005Z 14007KT 28/19 A3007 RMK A01 T02770191  RH  063%=      5-min Rain = 0
KBWS 232010Z 16007KT 28/19 A3007 RMK A01 T02810191  RH  061%=      5-min Rain = 0
KBWS 232015Z 14005KT 28/19 A3007 RMK A01 T02790185  RH  060%=      5-min Rain = 0
KBWS 232020Z 13005KT 28/19 A3007 RMK A01 T02800187  RH  060%=      5-min Rain = 0
KBWS 232025Z 15007KT 28/19 A3006 RMK A01 T02810189  RH  061%=      5-min Rain = 0
KBWS 232030Z 15007KT 28/19 A3006 RMK A01 T02820189  RH  060%=      5-min Rain = 0
KBWS 232035Z 15007KT 28/19 A3006 RMK A01 T02840188  RH  059%=      5-min Rain = 0
KBWS 232040Z 14008KT 29/19 A3005 RMK A01 T02870188  RH  058%=      5-min Rain = 0
KBWS 232045Z 16008G13KT 29/19 A3005 RMK A01 T02860190  RH  059%=      5-min Rain = 0
KBWS 232050Z 15011KT 29/19 A3005 RMK A01 T02850194  RH  061%=      5-min Rain = 0
KBWS 232055Z 14009KT 28/19 A3004 RMK A01 T02810193  RH  062%=      5-min Rain = 0
KBWS 232100Z 13007KT 27/19 A3004 RMK A01 T02730186  RH  062%=      5-min Rain = 0
KBWS 232105Z 13006KT 27/19 A3004 RMK A01 T02730187  RH  063%=      5-min Rain = 0
KBWS 232110Z 12005KT 27/19 A3004 RMK A01 T02730190  RH  064%=      5-min Rain = 0
KBWS 232115Z 12005KT 27/19 A3004 RMK A01 T02720192  RH  065%=      5-min Rain = 0
KBWS 232120Z 13005KT 27/19 A3004 RMK A01 T02740192  RH  065%=      5-min Rain = 0
KBWS 232125Z 13005KT 28/19 A3003 RMK A01 T02790193  RH  063%=      5-min Rain = 0
KBWS 232130Z 13004KT 28/19 A3003 RMK A01 T02810194  RH  063%=      5-min Rain = 0
KBWS 232135Z 12004KT 29/20 A3003 RMK A01 T02850195  RH  061%=      5-min Rain = 0
KBWS 232140Z 13007KT 29/20 A3003 RMK A01 T02880195  RH  060%=      5-min Rain = 0
KBWS 232145Z 17006KT 29/19 A3003 RMK A01 T02910193  RH  059%=      5-min Rain = 0
KBWS 232150Z 15007KT 29/19 A3003 RMK A01 T02910193  RH  059%=      5-min Rain = 0
KBWS 232155Z 14009KT 29/19 A3003 RMK A01 T02900193  RH  059%=      5-min Rain = 0
KBWS 232200Z 17009KT 29/20 A3003 RMK A01 T02920195  RH  059%=      5-min Rain = 0
KBWS 232205Z 16008G14KT 29/19 A3002 RMK A01 T02910192  RH  058%=      5-min Rain = 0
KBWS 232210Z 16008KT 29/19 A3002 RMK A01 T02910192  RH  058%=      5-min Rain = 0
KBWS 232215Z 17008KT 29/19 A3002 RMK A01 T02910192  RH  058%=      5-min Rain = 0
KBWS 232220Z 14008KT 29/19 A3002 RMK A01 T02900193  RH  059%=      5-min Rain = 0
KBWS 232225Z 13011KT 29/19 A3002 RMK A01 T02870194  RH  060%=      5-min Rain = 0
KBWS 232230Z 14012KT 28/19 A3002 RMK A01 T02820193  RH  062%=      5-min Rain = 0
KBWS 232235Z 14012KT 28/19 A3002 RMK A01 T02790193  RH  063%=      5-min Rain = 0
KBWS 232240Z 14010KT 28/19 A3002 RMK A01 T02760192  RH  064%=      5-min Rain = 0
KBWS 232245Z 16011KT 28/19 A3003 RMK A01 T02750192  RH  064%=      5-min Rain = 0
KBWS 232250Z 16010KT 27/19 A3003 RMK A01 T02740191  RH  064%=      5-min Rain = 0
KBWS 232255Z 16011KT 27/19 A3003 RMK A01 T02740194  RH  065%=      5-min Rain = 0
KBWS 232300Z 15011KT 27/19 A3002 RMK A01 T02740194  RH  065%=      5-min Rain = 0
KBWS 232305Z 16011KT 27/19 A3002 RMK A01 T02740194  RH  065%=      5-min Rain = 0
KBWS 232310Z 16011KT 28/20 A3002 RMK A01 T02780195  RH  064%=      5-min Rain = 0
KBWS 232315Z 16010KT 28/20 A3002 RMK A01 T02810196  RH  064%=      5-min Rain = 0
KBWS 232320Z 15011KT 28/20 A3002 RMK A01 T02810199  RH  065%=      5-min Rain = 0
KBWS 232325Z 15012KT 28/20 A3002 RMK A01 T02780202  RH  067%=      5-min Rain = 0
KBWS 232330Z 16011KT 28/20 A3003 RMK A01 T02760203  RH  068%=      5-min Rain = 0
KBWS 232335Z 16011KT 27/20 A3003 RMK A01 T02730201  RH  068%=      5-min Rain = 0
KBWS 232340Z 15010KT 27/20 A3003 RMK A01 T02690199  RH  069%=      5-min Rain = 0
KBWS 232345Z 14008KT 27/20 A3003 RMK A01 T02680200  RH  070%=      5-min Rain = 0
KBWS 232350Z 14010KT 27/20 A3003 RMK A01 T02660195  RH  068%=      5-min Rain = 0
KBWS 232355Z 14010KT 27/19 A3003 RMK A01 T02660193  RH  068%=      5-min Rain = 0
KBWS 240000Z 12016G23KT 26/19 A3004 RMK A01 T02580193  RH  071%=      5-min Rain = 0
KBWS 240005Z 13016G21KT 25/19 A3004 RMK A01 T02470192  RH  076%=      5-min Rain = 0
KBWS 240010Z 13014G19KT 24/19 A3003 RMK A01 T02430192  RH  078%=      5-min Rain = 0
KBWS 240015Z 12013KT 24/19 A3003 RMK A01 T02400191  RH  078%=      5-min Rain = 0
KBWS 240020Z 12011G16KT 24/19 A3003 RMK A01 T02390192  RH  079%=      5-min Rain = 0
KBWS 240025Z 12011KT 24/19 A3004 RMK A01 T02380192  RH  080%=      5-min Rain = 0
KBWS 240030Z 13013KT 24/19 A3004 RMK A01 T02370190  RH  079%=      5-min Rain = 0
KBWS 240035Z 13010KT 24/19 A3004 RMK A01 T02350191  RH  081%=      5-min Rain = 0
KBWS 240040Z 12011KT 23/19 A3004 RMK A01 T02340191  RH  081%=      5-min Rain = 0
KBWS 240045Z 13011KT 23/19 A3004 RMK A01 T02340191  RH  081%=      5-min Rain = 0
KBWS 240050Z 14011KT 23/19 A3004 RMK A01 T02330192  RH  082%=      5-min Rain = 0
KBWS 240055Z 14011KT 23/19 A3004 RMK A01 T02320189  RH  081%=      5-min Rain = 0
KBWS 240100Z 13011KT 23/19 A3004 RMK A01 T02310187  RH  080%=      5-min Rain = 0
KBWS 240105Z 13010KT 23/19 A3004 RMK A01 T02300188  RH  081%=      5-min Rain = 0
KBWS 240110Z 12010KT 23/19 A3004 RMK A01 T02300188  RH  081%=      5-min Rain = 0
KBWS 240115Z 11012KT 23/19 A3004 RMK A01 T02300186  RH  081%=      5-min Rain = 0
KBWS 240120Z 11010KT 23/19 A3004 RMK A01 T02290186  RH  081%=      5-min Rain = 0
KBWS 240125Z 12010KT 23/19 A3004 RMK A01 T02270187  RH  083%=      5-min Rain = 0
KBWS 240130Z 12011KT 23/19 A3004 RMK A01 T02250187  RH  083%=      5-min Rain = 0
KBWS 240135Z 12010KT 22/19 A3004 RMK A01 T02240188  RH  084%=      5-min Rain = 0
KBWS 240140Z 13010KT 22/19 A3004 RMK A01 T02230188  RH  085%=      5-min Rain = 0
KBWS 240145Z 13010KT 22/19 A3004 RMK A01 T02210189  RH  087%=      5-min Rain = 0
KBWS 240150Z 14010KT 22/19 A3004 RMK A01 T02200190  RH  087%=      5-min Rain = 0
KBWS 240155Z 15009KT 22/19 A3004 RMK A01 T02200190  RH  088%=      5-min Rain = 0
KBWS 240200Z 15008KT 22/19 A3004 RMK A01 T02190190  RH  088%=      5-min Rain = 0
KBWS 240205Z 15008KT 22/19 A3004 RMK A01 T02180190  RH  089%=      5-min Rain = 0
KBWS 240210Z 15008KT 22/19 A3004 RMK A01 T02190189  RH  088%=      5-min Rain = 0
KBWS 240215Z 15008G14KT 22/19 A3004 RMK A01 T02190188  RH  087%=      5-min Rain = 0
KBWS 240220Z 15010KT 22/19 A3004 RMK A01 T02200186  RH  085%=      5-min Rain = 0
KBWS 240225Z 15010KT 22/19 A3004 RMK A01 T02200185  RH  085%=      5-min Rain = 0
KBWS 240230Z 15010KT 22/18 A3004 RMK A01 T02190184  RH  085%=      5-min Rain = 0
KBWS 240235Z 15009KT 22/18 A3004 RMK A01 T02180184  RH  086%=      5-min Rain = 0
KBWS 240240Z 16009KT 22/19 A3004 RMK A01 T02170185  RH  086%=      5-min Rain = 0
KBWS 240245Z 16009KT 22/19 A3004 RMK A01 T02160185  RH  087%=      5-min Rain = 0
KBWS 240250Z 16008KT 22/19 A3004 RMK A01 T02160185  RH  087%=      5-min Rain = 0
KBWS 240255Z 16008KT 22/19 A3004 RMK A01 T02160185  RH  088%=      5-min Rain = 0
KBWS 240300Z 16008KT 22/19 A3004 RMK A01 T02150186  RH  088%=      5-min Rain = 0
KBWS 240305Z 15008KT 22/19 A3005 RMK A01 T02150185  RH  088%=      5-min Rain = 0
KBWS 240310Z 15006KT 21/19 A3005 RMK A01 T02140185  RH  088%=      5-min Rain = 0
KBWS 240315Z 14006KT 21/19 A3005 RMK A01 T02130185  RH  089%=      5-min Rain = 0
KBWS 240320Z 14005KT 21/19 A3005 RMK A01 T02120186  RH  090%=      5-min Rain = 0
KBWS 240325Z 14005KT 21/19 A3005 RMK A01 T02110186  RH  090%=      5-min Rain = 0
KBWS 240330Z 14005KT 21/19 A3005 RMK A01 T02100185  RH  091%=      5-min Rain = 0
KBWS 240335Z 15005KT 21/19 A3005 RMK A01 T02090186  RH  091%=      5-min Rain = 0
KBWS 240340Z 15005KT 21/19 A3005 RMK A01 T02080185  RH  092%=      5-min Rain = 0
KBWS 240345Z 15005KT 21/19 A3005 RMK A01 T02080186  RH  092%=      5-min Rain = 0
KBWS 240350Z 15006KT 21/19 A3005 RMK A01 T02080186  RH  092%=      5-min Rain = 0
KBWS 240355Z 14006KT 21/19 A3005 RMK A01 T02080185  RH  091%=      5-min Rain = 0
KBWS 240400Z 14005KT 21/19 A3005 RMK A01 T02080185  RH  091%=      5-min Rain = 0
KBWS 240405Z 14005KT 21/19 A3005 RMK A01 T02070185  RH  092%=      5-min Rain = 0
KBWS 240410Z 12005KT 21/19 A3005 RMK A01 T02060185  RH  092%=      5-min Rain = 0
KBWS 240415Z 11005KT 21/19 A3005 RMK A01 T02050186  RH  093%=      5-min Rain = 0
KBWS 240420Z 11006KT 21/19 A3006 RMK A01 T02050186  RH  094%=      5-min Rain = 0
KBWS 240425Z 11006KT 20/19 A3005 RMK A01 T02040186  RH  094%=      5-min Rain = 0
KBWS 240430Z 11006KT 20/19 A3005 RMK A01 T02040186  RH  094%=      5-min Rain = 0
KBWS 240435Z 12006KT 20/19 A3005 RMK A01 T02040186  RH  094%=      5-min Rain = 0
KBWS 240440Z 11005KT 20/19 A3005 RMK A01 T02040186  RH  095%=      5-min Rain = 0
KBWS 240445Z 10006KT 20/19 A3005 RMK A01 T02040187  RH  095%=      5-min Rain = 0
KBWS 240450Z 10006KT 20/19 A3005 RMK A01 T02030187  RH  095%=      5-min Rain = 0
KBWS 240455Z 10006KT 20/19 A3005 RMK A01 T02030187  RH  096%=      5-min Rain = 0

Page generated in 0.009 seconds.